Latest Weather Observations for Moss Vale

IDN60801

Issued at 3:05 pm EST Wednesday 17 September 2014 (issued every 30 minutes, with the page automatically refreshed every 10 minutes)

About weather observations | Map of weather stations | Latest weather observations for NSW | Other Formats
Station Details ID: 068239 Name: MOSS VALE AWS Lat: -34.53 Lon: 150.42 Height: 678.4 m
Data from the previous 72 hours. | See also: Recent months at Moss Vale
Date/Time
EST
Temp
°C
App
Temp
°C
Dew
Point
Rel
Hum
%
Delta-T
°C
Wind Press
QNH
hPa
Press
MSL
hPa
Rain
since 9 am
mm
Dir
 
Spd
km/h
Gust
km/h
Spd
kts
Gust
kts
17/03:00pm 12.6 2.4 0.0 42 5.4 W 43 59 23 32 1010.6 1010.0 0.0
17/02:31pm 12.7 1.2 -0.2 41 5.5 W 50 69 27 37 1010.6 1010.0 0.0
17/02:30pm 12.5 0.4 -1.4 38 5.8 W 52 69 28 37 1010.5 1009.9 0.0
17/02:11pm 12.7 1.0 -1.6 37 5.9 W 50 69 27 37 1010.5 1009.9 0.0
17/02:00pm 12.5 1.2 -1.1 39 5.7 W 48 63 26 34 1010.4 1009.8 0.0
17/01:30pm 12.7 2.9 -0.2 41 5.5 W 41 59 22 32 1010.6 1010.0 0.0
17/01:00pm 12.2 1.0 -1.0 40 5.5 W 48 67 26 36 1010.5 1009.9 0.0
17/12:30pm 12.1 1.0 -0.1 43 5.2 W 48 70 26 38 1010.6 1010.0 0.0
17/12:00pm 12.4 2.4 1.1 46 5.0 WSW 43 63 23 34 1010.7 1010.1 0.0
17/11:30am 12.4 1.3 -0.1 42 5.4 WSW 48 67 26 36 1010.7 1010.1 0.0
17/11:00am 12.3 2.4 -0.6 41 5.5 W 41 63 22 34 1010.9 1010.4 0.0
17/10:30am 11.7 1.3 -0.1 44 5.0 WSW 44 69 24 37 1011.1 1010.6 0.0
17/10:00am 11.2 0.8 -0.6 44 4.9 WSW 44 63 24 34 1011.3 1010.8 0.0
17/09:30am 10.9 0.8 0.3 48 4.5 WSW 43 67 23 36 1011.7 1011.1 0.0
17/09:01am 10.7 2.2 1.0 51 4.2 WSW 35 56 19 30 1012.3 1011.8 0.0
17/09:00am 10.6 1.8 1.2 52 4.1 WSW 37 54 20 29 1012.3 1011.8 0.2
17/08:30am 10.0 1.9 1.1 54 3.8 W 33 54 18 29 1012.7 1012.2 0.2
17/08:00am 9.5 1.3 2.8 63 3.0 W 35 46 19 25 1012.5 1012.0 0.2
17/07:30am 9.1 1.0 3.3 67 2.6 W 35 48 19 26 1012.1 1011.5 0.2
17/07:12am 9.0 0.2 3.6 69 2.4 W 39 57 21 31 1011.8 1011.2 0.2
17/07:00am 8.8 1.2 4.0 72 2.2 W 33 44 18 24 1011.8 1011.2 0.2
17/06:30am 8.3 1.7 4.1 75 1.9 W 28 41 15 22 1011.4 1010.9 0.2
17/06:00am 8.3 2.1 4.1 75 1.9 W 26 39 14 21 1011.3 1010.8 0.2
17/05:30am 8.6 2.8 4.4 75 1.9 W 24 35 13 19 1010.9 1010.4 0.2
17/05:00am 8.9 2.0 4.5 74 2.0 W 30 44 16 24 1010.6 1010.0 0.2
17/04:30am 9.1 3.4 4.7 74 2.0 W 24 33 13 18 1010.3 1009.7 0.2
17/04:00am 9.4 4.1 5.2 75 2.0 W 22 33 12 18 1010.4 1009.8 0.2
17/03:30am 9.4 4.2 5.6 77 1.8 W 22 32 12 17 1010.3 1009.7 0.2
17/03:00am 9.6 4.8 5.8 77 1.8 W 20 32 11 17 1010.3 1009.7 0.2
17/02:30am 10.1 4.9 5.7 74 2.1 W 22 37 12 20 1010.1 1009.5 0.2
17/02:00am 9.9 4.8 5.9 76 1.9 W 22 33 12 18 1010.1 1009.5 0.2
17/01:30am 9.8 4.6 5.6 75 2.0 W 22 30 12 16 1010.2 1009.6 0.2
17/01:00am 9.8 4.3 5.8 76 1.9 W 24 35 13 19 1010.4 1009.8 0.2
17/12:30am 9.5 4.8 5.9 78 1.7 W 20 30 11 16 1010.3 1009.7 0.2
17/12:00am 9.7 3.1 6.2 79 1.7 W 30 41 16 22 1010.1 1009.5 0.2
 
Date/Time
EST
Temp
°C
App
Temp
°C
Dew
Point
Rel
Hum
%
Delta-T
°C
Wind Press
QNH
hPa
Press
MSL
hPa
Rain
since 9 am
mm
Dir
 
Spd
km/h
Gust
km/h
Spd
kts
Gust
kts
16/11:30pm 9.6 4.1 6.0 78 1.7 W 24 32 13 17 1010.1 1009.5 0.2
16/11:00pm 9.8 3.5 5.8 76 1.9 W 28 43 15 23 1010.2 1009.6 0.2
16/10:30pm 9.8 5.0 5.8 76 1.9 W 20 33 11 18 1010.5 1009.9 0.2
16/10:00pm 10.0 4.2 6.2 77 1.8 W 26 37 14 20 1010.4 1009.8 0.2
16/09:30pm 10.2 3.7 6.5 78 1.8 W 30 44 16 24 1010.5 1009.9 0.2
16/09:23pm 10.4 4.3 6.5 77 1.9 W 28 46 15 25 1010.5 1009.9 0.2
16/09:00pm 10.3 5.1 5.7 73 2.2 W 22 32 12 17 1010.3 1009.7 0.2
16/08:30pm 10.4 4.9 5.8 73 2.2 WSW 24 39 13 21 1010.4 1009.8 0.2
16/08:00pm 10.6 4.8 4.3 65 2.9 W 24 35 13 19 1010.4 1009.8 0.2
16/07:30pm 11.3 4.0 4.3 62 3.3 WSW 32 50 17 27 1010.2 1009.6 0.2
16/07:21pm 11.4 4.9 4.6 63 3.2 WSW 28 46 15 25 1009.8 1009.3 0.2
16/07:00pm 11.2 6.4 5.5 68 2.7 W 20 28 11 15 1009.8 1009.3 0.2
16/06:30pm 11.4 5.4 5.5 67 2.8 W 26 37 14 20 1009.5 1008.9 0.2
16/06:00pm 11.3 6.3 4.7 64 3.1 W 20 30 11 16 1009.1 1008.5 0.2
16/05:30pm 11.9 6.1 4.4 60 3.5 W 24 37 13 20 1008.6 1008.0 0.2
16/05:03pm 12.5 5.9 4.0 56 4.0 W 28 46 15 25 1008.5 1007.9 0.2
16/05:00pm 12.5 5.0 3.5 54 4.2 W 32 46 17 25 1008.3 1007.8 0.2
16/04:42pm 13.1 5.5 2.6 49 4.8 W 32 52 17 28 1008.0 1007.4 0.2
16/04:30pm 14.1 7.4 3.8 50 4.9 W 28 41 15 22 1008.0 1007.4 0.2
16/04:11pm 14.0 6.6 1.6 43 5.6 W 30 50 16 27 1007.9 1007.3 0.2
16/04:00pm 14.7 7.3 1.6 41 6.0 W 30 44 16 24 1007.9 1007.3 0.2
16/03:30pm 14.8 7.4 1.7 41 6.0 W 30 43 16 23 1007.8 1007.2 0.2
16/03:00pm 14.6 6.6 1.8 42 5.8 W 33 52 18 28 1007.7 1007.1 0.2
16/02:33pm 15.2 6.8 1.7 40 6.2 W 35 54 19 29 1007.3 1006.7 0.2
16/02:30pm 15.2 6.9 2.4 42 5.9 W 35 50 19 27 1007.4 1006.8 0.2
16/02:00pm 15.7 7.9 2.8 42 6.1 W 33 46 18 25 1007.2 1006.6 0.2
16/01:36pm 16.4 9.7 3.8 43 6.1 W 28 50 15 27 1007.2 1006.6 0.2
16/01:30pm 16.5 10.9 5.2 47 5.6 W 24 33 13 18 1007.3 1006.7 0.2
16/01:00pm 15.0 12.9 9.6 70 2.9 N 11 13 6 7 1007.9 1007.3 0.2
16/12:30pm 14.5 10.8 9.5 72 2.7 N 19 24 10 13 1008.5 1007.9 0.2
16/12:00pm 14.2 10.2 8.4 68 3.0 NNE 19 26 10 14 1009.0 1008.4 0.0
16/11:30am 15.0 10.6 9.1 68 3.1 NNE 22 28 12 15 1009.6 1009.1 0.0
16/11:00am 14.3 8.2 9.7 74 2.5 NNE 32 37 17 20 1009.6 1009.1 0.0
16/10:33am 13.6 7.1 8.9 73 2.5 NNE 33 41 18 22 1010.1 1009.5 0.0
16/10:30am 14.1 7.5 9.9 76 2.3 NNE 35 43 19 23 1010.2 1009.6 0.0
16/10:00am 12.8 7.5 9.8 82 1.6 N 28 41 15 22 1010.8 1010.2 0.0
16/09:30am 12.7 6.5 9.9 83 1.5 N 33 41 18 22 1010.8 1010.2 0.0
16/09:15am 12.0 5.9 9.7 86 1.2 N 32 44 17 24 1011.0 1010.5 0.0
16/09:00am 11.7 5.4 9.8 88 1.0 N 33 41 18 22 1011.1 1010.6 0.2
16/08:45am 11.6 5.3 9.7 88 1.0 NNE 33 46 18 25 1011.0 1010.5 0.2
16/08:30am 11.6 5.7 9.2 85 1.2 NNE 30 39 16 21 1011.1 1010.6 0.2
16/08:00am 11.7 4.9 9.3 85 1.3 NNE 35 44 19 24 1011.2 1010.7 0.2
16/07:56am 11.4 4.9 9.0 85 1.2 NNE 33 44 18 24 1011.2 1010.7 0.2
16/07:44am 11.3 5.5 9.4 88 1.0 NNE 30 39 16 21 1011.4 1010.9 0.2
16/07:30am 11.1 5.2 9.0 87 1.1 NNE 30 41 16 22 1011.2 1010.7 0.2
16/07:00am 11.1 5.6 9.0 87 1.1 NE 28 35 15 19 1011.4 1010.9 0.2
16/06:51am 11.0 5.4 8.9 87 1.1 NE 28 35 15 19 1011.3 1010.8 0.2
16/06:30am 10.9 5.0 9.0 88 1.0 NE 30 41 16 22 1011.6 1011.0 0.2
16/06:25am 10.9 5.4 9.0 88 1.0 NE 28 37 15 20 1011.9 1011.3 0.2
16/06:20am 10.9 6.1 9.0 88 1.0 NNE 24 33 13 18 1012.0 1011.4 0.2
16/06:05am 10.8 6.4 8.9 88 1.0 NNE 22 30 12 16 1012.3 1011.8 0.2
16/06:00am 10.8 6.4 8.9 88 1.0 NE 22 30 12 16 1012.4 1011.9 0.2
16/05:55am 10.8 6.8 8.9 88 1.0 NE 20 28 11 15 1012.3 1011.8 0.2
16/05:30am 10.7 6.3 8.8 88 1.0 NE 22 28 12 15 1012.4 1011.9 0.2
16/05:14am 10.9 8.1 8.7 86 1.1 N 13 17 7 9 1013.0 1012.5 0.2
16/05:10am 10.9 7.8 8.7 86 1.1 NNW 15 19 8 10 1013.5 1013.0 0.2
16/05:00am 10.8 8.4 8.7 87 1.1 NW 11 22 6 12 1013.7 1013.2 0.2
16/04:30am 10.7 4.8 9.0 89 0.9 N 30 43 16 23 1012.5 1012.0 0.2
16/04:00am 10.7 5.5 8.8 88 1.0 NNE 26 43 14 23 1012.0 1011.4 0.2
16/03:30am 10.6 4.7 8.9 89 0.9 NNE 30 39 16 21 1012.4 1011.9 0.2
16/03:08am 10.7 5.1 8.8 88 1.0 NNE 28 37 15 20 1012.6 1012.1 0.2
16/03:00am 10.7 5.1 8.8 88 1.0 NNE 28 37 15 20 1012.5 1012.0 0.2
16/02:49am 10.7 5.4 8.6 87 1.1 NNE 26 35 14 19 1012.6 1012.1 0.2
16/02:30am 10.7 5.9 9.0 89 0.9 NNE 24 32 13 17 1013.0 1012.5 0.2
16/02:00am 10.7 6.7 9.0 89 0.9 NNE 20 33 11 18 1013.4 1012.8 0.2
16/01:53am 10.8 6.8 9.1 89 0.9 NNE 20 33 11 18 1013.6 1013.1 0.2
16/01:30am 10.8 6.1 9.1 89 0.9 NNE 24 33 13 18 1013.6 1013.1 0.2
16/01:25am 10.8 6.1 9.1 89 0.9 NNE 24 32 13 17 1013.7 1013.2 0.2
16/01:00am 10.7 5.9 9.0 89 0.9 NNE 24 30 13 16 1014.0 1013.5 0.2
16/12:30am 10.8 5.3 9.1 89 0.9 NNE 28 35 15 19 1014.5 1014.0 0.2
16/12:22am 10.8 5.7 9.1 89 0.9 NNE 26 32 14 17 1014.8 1014.3 0.2
16/12:00am 10.9 5.2 9.8 93 0.6 NNE 30 35 16 19 1015.0 1014.5 0.2
 
Date/Time
EST
Temp
°C
App
Temp
°C
Dew
Point
Rel
Hum
%
Delta-T
°C
Wind Press
QNH
hPa
Press
MSL
hPa
Rain
since 9 am
mm
Dir
 
Spd
km/h
Gust
km/h
Spd
kts
Gust
kts
15/11:30pm 10.9 6.7 9.8 93 0.6 NNE 22 28 12 15 1015.2 1014.7 0.2
15/11:00pm 11.0 7.4 9.8 92 0.6 NE 19 24 10 13 1015.5 1015.0 0.2
15/10:30pm 11.3 8.9 9.9 91 0.7 N 13 20 7 11 1016.4 1015.9 0.0
15/10:00pm 11.3 7.5 9.9 91 0.7 N 20 32 11 17 1016.4 1015.9 0.0
15/09:30pm 11.2 7.0 9.9 92 0.7 NNE 22 32 12 17 1016.1 1015.7 0.0
15/09:00pm 11.2 7.4 9.8 91 0.7 NNE 20 24 11 13 1016.5 1016.0 0.0
15/08:30pm 11.2 8.0 9.8 91 0.7 NNE 17 24 9 13 1016.7 1016.2 0.0
15/08:00pm 11.1 7.8 9.7 91 0.7 NNE 17 22 9 12 1016.7 1016.2 0.0
15/07:30pm 11.0 7.7 9.4 90 0.8 NE 17 24 9 13 1016.5 1016.0 0.0
15/07:00pm 11.0 7.3 9.3 89 0.9 NE 19 30 10 16 1015.9 1015.5 0.0
15/06:30pm 10.9 7.9 9.3 90 0.8 ENE 15 20 8 11 1015.9 1015.5 0.0
15/06:17pm 11.0 7.3 9.3 89 0.9 ENE 19 26 10 14 1015.7 1015.2 0.0
15/06:00pm 11.2 7.5 9.3 88 1.0 ENE 19 26 10 14 1015.6 1015.1 0.0
15/05:30pm 11.9 8.2 9.5 85 1.3 ENE 19 24 10 13 1015.5 1015.0 0.0
15/05:00pm 12.7 8.8 9.5 81 1.7 ENE 20 24 11 13 1015.3 1014.8 0.0
15/04:30pm 14.2 10.0 9.8 75 2.4 NE 22 24 12 13 1015.3 1014.8 0.0
15/04:00pm 15.1 10.8 9.5 69 3.0 ENE 22 28 12 15 1015.0 1014.5 0.0
15/03:30pm 16.9 14.6 2.5 38 6.8 E 4 11 2 6 1015.1 1014.6 0.0
15/03:00pm 16.6 12.7 3.3 41 6.3 N 13 19 7 10 1015.2 1014.7 0.0
15/02:30pm 16.5 13.0 5.5 48 5.5 SSW 13 17 7 9 1015.3 1014.8 0.0
15/02:00pm 16.3 12.3 3.0 41 6.3 SW 13 19 7 10 1015.5 1015.0 0.0
15/01:30pm 16.2 12.7 5.5 49 5.3 S 13 17 7 9 1015.7 1015.2 0.0
15/01:00pm 16.1 12.0 6.0 51 5.1 SSW 17 20 9 11 1016.1 1015.7 0.0
15/12:30pm 16.1 13.3 7.1 55 4.6 W 11 17 6 9 1016.6 1016.1 0.0
15/12:00pm 15.0 11.2 4.1 48 5.2 SW 13 19 7 10 1016.9 1016.4 0.0
15/11:30am 14.9 12.0 4.9 51 4.9 SW 9 19 5 10 1017.4 1017.0 0.0
15/11:00am 14.5 12.3 5.3 54 4.5 NW 6 13 3 7 1017.6 1017.2 0.0
15/10:30am 14.4 11.7 5.7 56 4.3 WNW 9 15 5 8 1018.0 1017.5 0.0
15/10:00am 13.3 11.1 6.4 63 3.4 NW 7 11 4 6 1018.2 1017.7 0.0
15/09:30am 12.1 9.0 5.7 65 3.1 N 11 17 6 9 1018.2 1017.7 0.0
15/09:00am 11.6 7.6 6.7 72 2.4 N 17 20 9 11 1018.6 1018.2 0.0
15/08:45am 11.3 7.2 6.4 72 2.4 N 17 20 9 11 1018.5 1018.1 0.0
15/08:30am 10.8 6.7 6.2 73 2.2 N 17 20 9 11 1018.6 1018.2 0.0
15/08:25am 11.0 6.7 6.9 76 2.0 N 19 20 10 11 1018.6 1018.2 0.0
15/08:00am 9.6 7.6 7.0 84 1.3 NNW 7 11 4 6 1018.8 1018.4 0.0
15/07:30am 8.6 7.2 7.2 91 0.7 NNW 4 7 2 4 1018.8 1018.4 0.0
15/07:27am 8.6 7.6 7.2 91 0.7 NW 2 7 1 4 1018.8 1018.4 0.0
15/07:10am 7.9 6.0 6.5 91 0.7 NW 6 7 3 4 1019.0 1018.6 0.0
15/07:00am 7.2 5.1 5.8 91 0.7 NNW 6 7 3 4 1019.0 1018.6 0.0
15/06:30am 7.2 4.9 5.8 91 0.7 WNW 7 11 4 6 1018.7 1018.3 0.0
15/06:18am 6.9 4.6 5.5 91 0.6 WNW 7 9 4 5 1018.6 1018.2 0.0
15/06:16am 6.9 4.6 5.5 91 0.6 WNW 7 9 4 5 1018.6 1018.2 0.0
15/06:00am 6.7 3.9 5.2 90 0.7 W 9 9 5 5 1018.6 1018.2 0.0
15/05:30am 6.1 3.8 4.6 90 0.7 E 6 9 3 5 1018.4 1017.9 0.0
15/05:00am 6.5 4.0 5.0 90 0.7 NNE 7 9 4 5 1018.1 1017.6 0.0
15/04:30am 6.1 3.2 4.4 89 0.8 ENE 9 11 5 6 1018.1 1017.6 0.0
15/04:17am 6.3 4.0 4.6 89 0.8 ESE 6 9 3 5 1018.2 1017.7 0.0
15/04:00am 7.0 5.2 5.3 89 0.8 SE 4 6 2 3 1018.3 1017.8 0.0
15/03:58am 6.9 5.1 5.2 89 0.8 SE 4 7 2 4 1018.4 1017.9 0.0
15/03:30am 7.2 6.1 5.3 88 0.9 CALM 0 0 0 0 1018.3 1017.8 0.0
15/03:00am 7.6 5.3 5.7 88 0.9 N 7 9 4 5 1018.3 1017.8 0.0
15/02:57am 7.7 5.4 5.8 88 0.9 N 7 9 4 5 1018.4 1017.9 0.0
15/02:52am 7.7 5.4 5.8 88 0.9 N 7 9 4 5 1018.4 1017.9 0.0
15/02:42am 7.9 5.7 6.0 88 0.9 NNW 7 9 4 5 1018.5 1018.1 0.0
15/02:30am 8.1 6.1 6.2 88 0.9 NNW 6 7 3 4 1018.6 1018.2 0.0
15/02:10am 8.1 6.1 6.4 89 0.8 N 6 7 3 4 1018.7 1018.3 0.0
15/02:00am 8.1 6.1 6.4 89 0.8 NNE 6 7 3 4 1018.7 1018.3 0.0
15/01:30am 8.1 6.1 6.4 89 0.8 N 6 9 3 5 1018.8 1018.4 0.0
15/01:12am 8.1 6.1 6.2 88 0.9 N 6 7 3 4 1019.0 1018.6 0.0
15/01:00am 8.3 6.1 6.4 88 0.9 N 7 9 4 5 1019.2 1018.8 0.0
15/12:41am 8.4 6.5 6.5 88 0.9 NE 6 7 3 4 1019.3 1018.9 0.0
15/12:30am 8.7 6.8 6.8 88 0.9 NE 6 7 3 4 1019.5 1019.0 0.0
15/12:12am 8.9 7.8 6.7 86 1.1 SSW 2 7 1 4 1019.7 1019.2 0.0
15/12:00am 9.4 8.9 7.7 89 0.8 CALM 0 0 0 0 1019.7 1019.2 0.0
 
Date/Time
EST
Temp
°C
App
Temp
°C
Dew
Point
Rel
Hum
%
Delta-T
°C
Wind Press
QNH
hPa
Press
MSL
hPa
Rain
since 9 am
mm
Dir
 
Spd
km/h
Gust
km/h
Spd
kts
Gust
kts
14/11:30pm 9.6 9.1 7.7 88 0.9 CALM 0 0 0 0 1019.8 1019.4 0.0
14/11:00pm 9.6 9.2 8.4 92 0.6 CALM 0 0 0 0 1020.0 1019.6 0.0
14/10:30pm 9.7 9.4 8.5 92 0.6 CALM 0 0 0 0 1020.0 1019.6 0.0
14/10:00pm 9.7 9.0 8.6 93 0.6 S 2 6 1 3 1020.0 1019.6 0.0
14/09:30pm 9.8 8.2 8.7 93 0.6 S 7 11 4 6 1020.2 1019.8 0.0
14/09:00pm 9.8 7.8 8.7 93 0.6 SSW 9 13 5 7 1020.0 1019.6 0.0
14/08:46pm 10.0 8.6 8.9 93 0.6 S 6 9 3 5 1019.9 1019.5 0.0
14/08:30pm 9.7 9.0 8.6 93 0.6 S 2 9 1 5 1019.8 1019.4 0.0
14/08:28pm 9.7 9.4 8.6 93 0.6 CALM 0 9 0 5 1019.8 1019.4 0.0
14/08:00pm 10.0 9.7 8.8 92 0.6 CALM 0 6 0 3 1019.7 1019.2 0.0
14/07:41pm 10.2 8.9 9.1 93 0.6 E 6 9 3 5 1019.7 1019.2 0.0
14/07:30pm 10.2 8.7 9.0 92 0.6 ESE 7 9 4 5 1019.6 1019.1 0.0
14/07:00pm 10.4 7.0 9.2 92 0.6 SSE 17 20 9 11 1019.2 1018.8 0.0
14/06:30pm 11.0 8.0 9.4 90 0.8 SSE 15 20 8 11 1018.8 1018.4 0.0
14/06:00pm 11.9 8.6 9.6 86 1.2 SE 17 22 9 12 1018.3 1017.8 0.0
14/05:30pm 14.2 10.9 7.9 66 3.2 SSW 15 22 8 12 1018.1 1017.6 0.0
14/05:00pm 16.8 12.0 2.8 39 6.6 WSW 17 24 9 13 1017.7 1017.3 0.0
14/04:30pm 17.4 11.6 2.2 36 7.1 W 22 32 12 17 1017.4 1017.0 0.0
14/04:00pm 17.7 11.7 1.2 33 7.6 WSW 22 30 12 16 1017.3 1016.9 0.0
14/03:30pm 18.1 12.2 1.6 33 7.7 WSW 22 32 12 17 1017.3 1016.9 0.0

Other Formats:

Comma delimited format used in spreadsheet applications
http://www.bom.gov.au/fwo/IDN60801/IDN60801.94746.axf

JavaScript Object Notation format (JSON) in row-major order
http://www.bom.gov.au/fwo/IDN60801/IDN60801.94746.json